createdAt,value
2018-07-31T00:00:16.971Z,101082.10
2018-07-31T00:02:45.838Z,101085.39
2018-07-31T00:05:14.667Z,101080.91
2018-07-31T00:07:43.542Z,101077.54
2018-07-31T00:10:12.384Z,101083.14
2018-07-31T00:12:41.224Z,101077.54
2018-07-31T00:15:11.654Z,101083.80
2018-07-31T00:17:40.597Z,101072.44
2018-07-31T00:20:09.465Z,101079.12
2018-07-31T00:22:38.463Z,101066.99
2018-07-31T00:25:07.302Z,101070.05
2018-07-31T00:27:36.193Z,101063.91
2018-07-31T00:30:07.438Z,101064.88
2018-07-31T00:32:36.260Z,101066.50
2018-07-31T00:35:05.108Z,101063.38
2018-07-31T00:37:33.951Z,101061.35
2018-07-31T00:40:02.830Z,101069.12
2018-07-31T00:42:31.676Z,101066.66
2018-07-31T00:45:00.537Z,101066.34
2018-07-31T00:47:29.364Z,101067.81
2018-07-31T00:49:58.235Z,101072.16
2018-07-31T00:52:27.081Z,101068.45
2018-07-31T00:54:55.988Z,101070.56
2018-07-31T00:57:24.827Z,101066.42
2018-07-31T00:59:53.694Z,101068.45
2018-07-31T01:02:22.530Z,101062.17
2018-07-31T01:04:51.364Z,101060.47
2018-07-31T01:07:20.239Z,101061.84
2018-07-31T01:09:49.078Z,101064.61
2018-07-31T01:12:17.934Z,101059.09
2018-07-31T01:14:46.786Z,101058.03
2018-07-31T01:17:15.645Z,101058.23
2018-07-31T01:19:44.486Z,101057.50
2018-07-31T01:22:13.348Z,101059.38
2018-07-31T01:24:42.230Z,101051.95
2018-07-31T01:27:11.092Z,101049.95
2018-07-31T01:29:40.025Z,101051.01
2018-07-31T01:32:08.880Z,101051.50
2018-07-31T01:34:37.717Z,101051.41
2018-07-31T01:37:06.607Z,101054.50
2018-07-31T01:39:35.457Z,101051.62
2018-07-31T01:42:04.339Z,101046.39
2018-07-31T01:44:33.185Z,101038.75
2018-07-31T01:47:02.114Z,101040.82
2018-07-31T01:49:30.993Z,101045.77
2018-07-31T01:51:59.855Z,101045.86
2018-07-31T01:54:28.711Z,101046.83
2018-07-31T01:56:57.573Z,101041.06
2018-07-31T01:59:26.409Z,101037.53
2018-07-31T02:01:55.274Z,101039.44
2018-07-31T02:04:24.134Z,101042.39
2018-07-31T02:06:52.981Z,101041.83
2018-07-31T02:09:21.829Z,101032.29
2018-07-31T02:11:50.718Z,101034.84
2018-07-31T02:14:19.588Z,101033.80
2018-07-31T02:16:48.452Z,101029.66
2018-07-31T02:19:17.282Z,101023.81
2018-07-31T02:21:46.124Z,101020.20
2018-07-31T02:24:14.963Z,101020.40
2018-07-31T02:26:43.820Z,101017.92
2018-07-31T02:29:12.649Z,101021.02
2018-07-31T02:31:41.678Z,101013.92
2018-07-31T02:34:10.540Z,101008.52
2018-07-31T02:36:39.390Z,101009.37
2018-07-31T02:39:08.785Z,101014.64
2018-07-31T02:41:37.637Z,101008.91
2018-07-31T02:44:06.508Z,101002.03
2018-07-31T02:46:35.331Z,101002.23
2018-07-31T02:49:04.195Z,101003.27
2018-07-31T02:51:33.028Z,101000.52
2018-07-31T02:54:01.872Z,101006.67
2018-07-31T02:56:30.725Z,101009.91
2018-07-31T02:58:59.614Z,101007.99
2018-07-31T03:01:28.452Z,101010.42
2018-07-31T03:03:57.299Z,101007.27
2018-07-31T03:06:26.126Z,101002.41
2018-07-31T03:08:54.990Z,101007.69
2018-07-31T03:11:23.816Z,101010.97
2018-07-31T03:13:52.693Z,101002.70
2018-07-31T03:16:22.735Z,101002.70
2018-07-31T03:18:51.593Z,100997.83
2018-07-31T03:21:20.452Z,101002.09
2018-07-31T03:23:49.307Z,100999.86
2018-07-31T03:26:18.245Z,100997.95
2018-07-31T03:28:47.080Z,101002.42
2018-07-31T03:31:15.929Z,100997.24
2018-07-31T03:33:44.751Z,101005.32
2018-07-31T03:36:13.636Z,101004.70
2018-07-31T03:38:45.599Z,101002.47
2018-07-31T03:41:14.496Z,101003.41
2018-07-31T03:43:43.355Z,101014.65
2018-07-31T03:46:12.233Z,101005.32
2018-07-31T03:48:41.096Z,101003.94
2018-07-31T03:51:09.956Z,101004.14
2018-07-31T03:53:38.820Z,101002.23
2018-07-31T03:56:07.670Z,101005.52
2018-07-31T03:58:36.527Z,101003.94
2018-07-31T04:01:05.422Z,101007.42
2018-07-31T04:03:34.273Z,101012.27
2018-07-31T04:06:03.096Z,101020.61
2018-07-31T04:08:31.924Z,101017.86
2018-07-31T04:11:00.756Z,101026.38
2018-07-31T04:13:29.602Z,101028.48
2018-07-31T04:15:58.450Z,101029.97
2018-07-31T04:18:27.318Z,101027.94
2018-07-31T04:20:56.193Z,101020.52
2018-07-31T04:23:28.614Z,101019.89
2018-07-31T04:25:57.461Z,101018.70
2018-07-31T04:28:26.317Z,101018.37
2018-07-31T04:30:55.178Z,101018.04
2018-07-31T04:33:24.031Z,101021.13
2018-07-31T04:35:52.891Z,101023.60
2018-07-31T04:38:21.755Z,101022.77
2018-07-31T04:40:50.631Z,101026.52
2018-07-31T04:43:19.467Z,101024.30
2018-07-31T04:45:48.321Z,101024.02
2018-07-31T04:48:17.202Z,101024.99
2018-07-31T04:50:46.040Z,101016.20
2018-07-31T04:53:14.887Z,101013.02
2018-07-31T04:55:43.786Z,101010.76
2018-07-31T04:58:12.613Z,101015.22
2018-07-31T05:00:41.427Z,101023.17
2018-07-31T05:03:10.277Z,101023.94
2018-07-31T05:05:39.133Z,101028.39
2018-07-31T05:08:08.007Z,101033.95
2018-07-31T05:10:36.897Z,101036.30
2018-07-31T05:13:05.752Z,101037.56
2018-07-31T05:15:34.610Z,101039.48
2018-07-31T05:18:03.471Z,101042.32
2018-07-31T05:20:32.288Z,101055.94
2018-07-31T05:23:01.138Z,101058.08
2018-07-31T05:25:29.959Z,101055.96
2018-07-31T05:28:01.939Z,101053.72
2018-07-31T05:30:30.793Z,101056.59
2018-07-31T05:32:59.680Z,101060.95
2018-07-31T05:35:28.509Z,101055.85
2018-07-31T05:37:57.382Z,101052.95
2018-07-31T05:40:26.255Z,101050.80
2018-07-31T05:42:55.079Z,101046.61
2018-07-31T05:45:23.920Z,101059.30
2018-07-31T05:47:52.769Z,101060.66
2018-07-31T05:50:21.660Z,101063.17
2018-07-31T05:52:50.596Z,101066.02
2018-07-31T05:55:19.448Z,101057.70
2018-07-31T05:57:48.282Z,101056.92
2018-07-31T06:00:17.129Z,101059.84
2018-07-31T06:02:45.987Z,101061.34
2018-07-31T06:05:14.809Z,101055.41
2018-07-31T06:07:43.655Z,101055.28
2018-07-31T06:10:12.463Z,101056.98
2018-07-31T06:12:44.649Z,101057.87
2018-07-31T06:15:13.476Z,101062.66
2018-07-31T06:17:42.360Z,101062.81
2018-07-31T06:20:16.124Z,101064.58
2018-07-31T06:22:46.379Z,101062.47
2018-07-31T06:25:15.276Z,101063.17
2018-07-31T06:27:44.672Z,101064.89
2018-07-31T06:30:14.667Z,101064.05
2018-07-31T06:32:43.575Z,101059.91
2018-07-31T06:35:12.425Z,101064.77
2018-07-31T06:37:41.264Z,101058.92
2018-07-31T06:40:10.375Z,101055.40
2018-07-31T06:42:39.238Z,101051.92
2018-07-31T06:45:08.069Z,101050.66
2018-07-31T06:47:36.913Z,101047.31
2018-07-31T06:50:05.757Z,101049.25
2018-07-31T06:52:34.589Z,101046.69
2018-07-31T06:55:03.552Z,101036.30
2018-07-31T06:57:32.376Z,101052.21
2018-07-31T07:00:01.231Z,101051.39
2018-07-31T07:02:30.080Z,101049.88
2018-07-31T07:04:58.917Z,101042.00
2018-07-31T07:07:27.756Z,101025.63
2018-07-31T07:09:56.591Z,101019.56
2018-07-31T07:12:25.580Z,101022.26
2018-07-31T07:14:54.476Z,101034.05
2018-07-31T07:17:29.654Z,101026.41
2018-07-31T07:19:58.500Z,101022.77
2018-07-31T07:22:27.385Z,101029.56
2018-07-31T07:24:56.205Z,101031.52
2018-07-31T07:27:31.232Z,101036.91
2018-07-31T07:30:00.805Z,101037.20
2018-07-31T07:32:32.466Z,101034.09
2018-07-31T07:35:00.085Z,101040.77
2018-07-31T07:37:29.751Z,101037.19
2018-07-31T07:40:04.588Z,101040.45
2018-07-31T07:42:49.345Z,101048.69
2018-07-31T07:45:25.262Z,101044.39
2018-07-31T07:47:59.403Z,101055.27
2018-07-31T07:50:33.116Z,101053.28
2018-07-31T07:53:09.750Z,101049.86
2018-07-31T07:55:42.646Z,101049.34
2018-07-31T07:58:15.349Z,101040.39
2018-07-31T08:00:45.252Z,101036.55
2018-07-31T08:03:16.445Z,101035.76
2018-07-31T08:05:51.667Z,101032.12
2018-07-31T08:08:26.763Z,101033.39
2018-07-31T08:10:53.564Z,101036.09
2018-07-31T08:13:23.285Z,101040.34
2018-07-31T08:15:52.433Z,101024.88
2018-07-31T08:18:25.759Z,101016.53
2018-07-31T08:20:55.629Z,101026.45
2018-07-31T08:23:24.825Z,101028.53
2018-07-31T08:25:56.988Z,101034.25
2018-07-31T08:28:26.665Z,101029.17
2018-07-31T08:30:56.605Z,101023.25
2018-07-31T08:33:26.017Z,101025.23
2018-07-31T08:35:58.065Z,101031.06
2018-07-31T08:38:29.278Z,101037.16
2018-07-31T08:40:59.123Z,101037.17
2018-07-31T08:43:29.323Z,101042.09
2018-07-31T08:45:59.106Z,101045.06
2018-07-31T08:48:31.763Z,101049.36
2018-07-31T08:51:01.302Z,101044.28
2018-07-31T08:53:31.103Z,101059.67
2018-07-31T08:56:00.411Z,101062.08
2018-07-31T08:58:29.833Z,101069.28
2018-07-31T09:00:59.341Z,101071.20
2018-07-31T09:03:31.369Z,101064.70
2018-07-31T09:06:04.462Z,101069.66
2018-07-31T09:08:34.487Z,101063.37
2018-07-31T09:11:11.254Z,101070.64
2018-07-31T09:13:47.004Z,101063.77
2018-07-31T09:16:16.860Z,101068.66
2018-07-31T09:18:56.952Z,101058.66
2018-07-31T09:21:33.788Z,101060.31
2018-07-31T09:23:56.906Z,101061.34
2018-07-31T09:26:27.149Z,101068.53
2018-07-31T09:28:57.553Z,101063.12
2018-07-31T09:31:31.068Z,101056.48
2018-07-31T09:34:07.330Z,101056.83
2018-07-31T09:36:43.770Z,101055.11
2018-07-31T09:39:18.835Z,101058.33
2018-07-31T09:41:50.717Z,101064.09
2018-07-31T09:44:22.867Z,101061.30
2018-07-31T09:46:53.213Z,101084.30
2018-07-31T09:49:22.729Z,101071.61
2018-07-31T09:52:01.852Z,101070.68
2018-07-31T09:54:38.688Z,101066.61
2018-07-31T09:57:10.051Z,101078.51
2018-07-31T09:59:46.682Z,101076.02
2018-07-31T10:02:16.118Z,101081.95
2018-07-31T10:04:46.075Z,101097.25
2018-07-31T10:07:16.810Z,101082.69
2018-07-31T10:09:47.388Z,101079.08
2018-07-31T10:12:16.968Z,101097.98
2018-07-31T10:14:47.319Z,101093.45
2018-07-31T10:17:18.033Z,101083.41
2018-07-31T10:19:52.378Z,101103.84
2018-07-31T10:22:28.894Z,101080.03
2018-07-31T10:25:05.334Z,101085.77
2018-07-31T10:27:43.558Z,101101.56
2018-07-31T10:30:16.283Z,101095.88
2018-07-31T10:32:46.770Z,101093.16
2018-07-31T10:35:19.783Z,101102.41
2018-07-31T10:38:00.827Z,101097.41
2018-07-31T10:40:40.276Z,101113.19
2018-07-31T10:43:17.138Z,101126.95
2018-07-31T10:45:46.902Z,101120.47
2018-07-31T10:48:17.614Z,101126.00
2018-07-31T10:50:47.812Z,101125.89
2018-07-31T10:53:27.481Z,101118.84
2018-07-31T10:55:59.089Z,101123.36
2018-07-31T10:58:28.596Z,101115.16
2018-07-31T11:00:59.344Z,101117.78
2018-07-31T11:03:34.031Z,101118.84
2018-07-31T11:06:10.490Z,101125.52
2018-07-31T11:08:40.129Z,101129.58
2018-07-31T11:11:14.213Z,101123.00
2018-07-31T11:13:43.814Z,101126.09
2018-07-31T11:16:13.065Z,101134.52
2018-07-31T11:18:43.112Z,101145.37
2018-07-31T11:21:16.866Z,101143.50
2018-07-31T11:23:48.133Z,101135.05
2018-07-31T11:26:18.106Z,101148.16
2018-07-31T11:28:48.646Z,101138.98
2018-07-31T11:31:22.494Z,101148.36
2018-07-31T11:33:52.301Z,101159.63
2018-07-31T11:36:27.094Z,101151.95
2018-07-31T11:39:01.443Z,101171.73
2018-07-31T11:41:35.483Z,101186.78
2018-07-31T11:44:05.583Z,101176.08
2018-07-31T11:46:55.548Z,101169.05
2018-07-31T11:49:25.428Z,101162.89
2018-07-31T11:51:54.794Z,101173.06
2018-07-31T11:54:29.730Z,101182.44
2018-07-31T11:57:02.150Z,101185.84
2018-07-31T11:59:37.662Z,101192.77
2018-07-31T12:02:10.174Z,101185.80
2018-07-31T12:04:45.359Z,101193.61
2018-07-31T12:07:18.395Z,101184.42
2018-07-31T12:09:51.729Z,101182.28
2018-07-31T12:12:24.153Z,101207.22
2018-07-31T12:14:54.136Z,101191.66
2018-07-31T12:17:28.722Z,101187.42
2018-07-31T12:19:57.307Z,101192.28
2018-07-31T12:22:27.958Z,101197.95
2018-07-31T12:24:58.023Z,101200.67
2018-07-31T12:27:30.948Z,101208.55
2018-07-31T12:30:00.824Z,101215.41
2018-07-31T12:32:36.137Z,101211.19
2018-07-31T12:35:06.226Z,101209.21
2018-07-31T12:37:39.728Z,101203.61
2018-07-31T12:40:13.128Z,101217.95
2018-07-31T12:42:45.651Z,101216.53
2018-07-31T12:45:16.524Z,101210.60
2018-07-31T12:47:55.741Z,101222.42
2018-07-31T12:50:37.134Z,101215.36
2018-07-31T12:53:07.130Z,101220.41
2018-07-31T12:55:42.672Z,101232.25
2018-07-31T12:58:12.636Z,101232.25
2018-07-31T13:00:42.186Z,101237.00
2018-07-31T13:03:17.917Z,101231.43
2018-07-31T13:05:51.216Z,101239.00
2018-07-31T13:08:20.649Z,101234.16
2018-07-31T13:10:50.439Z,101238.66
2018-07-31T13:13:25.692Z,101234.69
2018-07-31T13:15:55.970Z,101243.42
2018-07-31T13:18:32.531Z,101243.98
2018-07-31T13:21:01.865Z,101254.40
2018-07-31T13:23:33.294Z,101249.90
2018-07-31T13:26:08.026Z,101251.24
2018-07-31T13:28:37.051Z,101258.52
2018-07-31T13:31:06.589Z,101247.59
2018-07-31T13:33:35.718Z,101250.69
2018-07-31T13:36:09.578Z,101246.21
2018-07-31T13:38:44.204Z,101266.14
2018-07-31T13:41:16.869Z,101254.63
2018-07-31T13:43:48.109Z,101245.05
2018-07-31T13:46:17.793Z,101253.80
2018-07-31T13:48:49.594Z,101263.36
2018-07-31T13:51:23.626Z,101258.53
2018-07-31T13:53:52.998Z,101268.84
2018-07-31T13:56:22.109Z,101270.01
2018-07-31T13:58:54.150Z,101263.73
2018-07-31T14:01:23.559Z,101274.80
2018-07-31T14:03:53.210Z,101267.22
2018-07-31T14:06:25.779Z,101272.41
2018-07-31T14:08:55.398Z,101278.63
2018-07-31T14:11:24.578Z,101277.95
2018-07-31T14:13:53.837Z,101281.70
2018-07-31T14:16:25.958Z,101277.61
2018-07-31T14:18:57.971Z,101293.05
2018-07-31T14:21:29.499Z,101285.78
2018-07-31T14:24:04.721Z,101296.78
2018-07-31T14:26:33.972Z,101294.20
2018-07-31T14:29:03.900Z,101299.80
2018-07-31T14:31:33.522Z,101296.47
2018-07-31T14:34:06.092Z,101314.02
2018-07-31T14:36:38.948Z,101311.22
2018-07-31T14:39:10.497Z,101314.31
2018-07-31T14:41:42.607Z,101307.86
2018-07-31T14:44:15.149Z,101308.08
2018-07-31T14:46:47.080Z,101318.95
2018-07-31T14:49:19.919Z,101310.52
2018-07-31T14:51:49.530Z,101312.35
2018-07-31T14:54:20.610Z,101326.25
2018-07-31T14:56:49.967Z,101313.61
2018-07-31T14:59:19.274Z,101315.16
2018-07-31T15:01:50.293Z,101310.28
2018-07-31T15:04:18.457Z,101304.51
2018-07-31T15:06:47.789Z,101308.35
2018-07-31T15:09:17.181Z,101317.57
2018-07-31T15:11:49.206Z,101327.05
2018-07-31T15:14:18.279Z,101328.22
2018-07-31T15:16:47.476Z,101323.84
2018-07-31T15:19:16.257Z,101320.25
2018-07-31T15:21:45.112Z,101321.73
2018-07-31T15:24:13.956Z,101322.63
2018-07-31T15:26:42.854Z,101321.36
2018-07-31T15:29:11.681Z,101332.17
2018-07-31T15:31:40.527Z,101340.86
2018-07-31T15:34:09.516Z,101333.05
2018-07-31T15:36:38.375Z,101325.33
2018-07-31T15:39:09.520Z,101327.90
2018-07-31T15:41:38.381Z,101327.64
2018-07-31T15:44:07.227Z,101324.64
2018-07-31T15:46:36.198Z,101309.66
2018-07-31T15:49:05.109Z,101326.25
2018-07-31T15:51:34.071Z,101322.03
2018-07-31T15:54:02.959Z,101331.13
2018-07-31T15:56:31.724Z,101318.75
2018-07-31T15:59:00.570Z,101326.39
2018-07-31T16:01:29.550Z,101330.02
2018-07-31T16:03:58.646Z,101336.17
2018-07-31T16:06:36.556Z,101331.97
2018-07-31T16:09:08.015Z,101326.48
2018-07-31T16:11:36.916Z,101333.17
2018-07-31T16:14:05.970Z,101342.19
2018-07-31T16:16:34.796Z,101337.92
2018-07-31T16:19:03.649Z,101337.12
2018-07-31T16:21:32.504Z,101336.78
2018-07-31T16:24:01.390Z,101327.67
2018-07-31T16:26:30.210Z,101333.54
2018-07-31T16:28:59.073Z,101341.39
2018-07-31T16:31:27.888Z,101346.31
2018-07-31T16:33:56.770Z,101339.28
2018-07-31T16:36:25.683Z,101342.86
2018-07-31T16:38:54.510Z,101341.70
2018-07-31T16:41:23.344Z,101336.43
2018-07-31T16:43:52.176Z,101339.71
2018-07-31T16:46:21.035Z,101340.84
2018-07-31T16:48:51.556Z,101339.63
2018-07-31T16:51:20.429Z,101335.40
2018-07-31T16:53:49.346Z,101343.95
2018-07-31T16:56:18.465Z,101344.68
2018-07-31T16:58:47.237Z,101352.73
2018-07-31T17:01:16.084Z,101351.29
2018-07-31T17:03:44.954Z,101357.17
2018-07-31T17:06:13.786Z,101354.02
2018-07-31T17:08:42.933Z,101362.57
2018-07-31T17:11:15.341Z,101364.88
2018-07-31T17:13:44.120Z,101365.11
2018-07-31T17:16:13.459Z,101368.83
2018-07-31T17:18:42.855Z,101378.25
2018-07-31T17:21:11.705Z,101370.39
2018-07-31T17:23:40.618Z,101373.92
2018-07-31T17:26:10.051Z,101376.96
2018-07-31T17:28:38.907Z,101377.92
2018-07-31T17:31:07.694Z,101381.33
2018-07-31T17:33:36.554Z,101382.73
2018-07-31T17:36:05.418Z,101383.13
2018-07-31T17:38:34.272Z,101384.80
2018-07-31T17:41:03.122Z,101383.95
2018-07-31T17:43:31.951Z,101385.68
2018-07-31T17:46:00.806Z,101384.28
2018-07-31T17:48:29.682Z,101387.70
2018-07-31T17:50:58.500Z,101383.59
2018-07-31T17:53:27.525Z,101389.44
2018-07-31T17:55:56.625Z,101394.27
2018-07-31T17:58:25.548Z,101395.02
2018-07-31T18:00:54.371Z,101395.39
2018-07-31T18:03:23.244Z,101398.58
2018-07-31T18:05:52.081Z,101399.13
2018-07-31T18:08:21.100Z,101401.19
2018-07-31T18:10:49.946Z,101402.70
2018-07-31T18:13:18.802Z,101405.16
2018-07-31T18:15:51.255Z,101404.66
2018-07-31T18:18:20.172Z,101409.72
2018-07-31T18:20:49.326Z,101406.70
2018-07-31T18:23:18.232Z,101410.70
2018-07-31T18:25:47.096Z,101409.77
2018-07-31T18:28:15.967Z,101415.93
2018-07-31T18:30:44.794Z,101412.02
2018-07-31T18:33:13.666Z,101415.81
2018-07-31T18:35:42.512Z,101420.83
2018-07-31T18:38:13.068Z,101420.06
2018-07-31T18:40:41.923Z,101421.75
2018-07-31T18:43:10.754Z,101428.56
2018-07-31T18:45:39.587Z,101427.52
2018-07-31T18:48:08.514Z,101432.70
2018-07-31T18:50:37.541Z,101434.33
2018-07-31T18:53:06.340Z,101437.34
2018-07-31T18:55:35.249Z,101440.83
2018-07-31T18:58:04.076Z,101445.48
2018-07-31T19:00:34.233Z,101444.28
2018-07-31T19:03:03.148Z,101448.77
2018-07-31T19:05:31.988Z,101448.67
2018-07-31T19:08:00.950Z,101446.95
2018-07-31T19:10:30.092Z,101450.92
2018-07-31T19:12:58.913Z,101455.39
2018-07-31T19:15:27.762Z,101461.65
2018-07-31T19:17:56.613Z,101462.38
2018-07-31T19:20:25.454Z,101466.20
2018-07-31T19:22:54.556Z,101472.88
2018-07-31T19:25:23.394Z,101480.73
2018-07-31T19:27:52.339Z,101486.77
2018-07-31T19:30:21.204Z,101487.64
2018-07-31T19:32:50.080Z,101489.84
2018-07-31T19:35:18.922Z,101491.37
2018-07-31T19:37:47.762Z,101494.70
2018-07-31T19:40:16.627Z,101499.30
2018-07-31T19:42:45.477Z,101509.36
2018-07-31T19:45:14.468Z,101513.95
2018-07-31T19:47:43.356Z,101514.56
2018-07-31T19:50:12.207Z,101512.03
2018-07-31T19:52:41.045Z,101516.53
2018-07-31T19:55:10.009Z,101526.88
2018-07-31T19:57:38.881Z,101526.43
2018-07-31T20:00:07.985Z,101526.23
2018-07-31T20:02:36.875Z,101537.33
2018-07-31T20:05:05.870Z,101535.84
2018-07-31T20:07:37.888Z,101543.20
2018-07-31T20:10:07.203Z,101544.03
2018-07-31T20:12:36.038Z,101547.14
2018-07-31T20:15:04.993Z,101547.31
2018-07-31T20:17:33.793Z,101552.50
2018-07-31T20:20:02.640Z,101552.05
2018-07-31T20:22:31.709Z,101549.48
2018-07-31T20:25:00.546Z,101552.86
2018-07-31T20:27:29.530Z,101550.28
2018-07-31T20:29:58.522Z,101546.95
2018-07-31T20:32:27.376Z,101539.09
2018-07-31T20:34:56.204Z,101537.50
2018-07-31T20:37:25.076Z,101540.34
2018-07-31T20:39:53.948Z,101546.28
2018-07-31T20:42:22.760Z,101543.11
2018-07-31T20:44:51.639Z,101545.75
2018-07-31T20:47:20.486Z,101542.77
2018-07-31T20:49:49.363Z,101540.33
2018-07-31T20:52:18.264Z,101539.03
2018-07-31T20:54:47.066Z,101534.53
2018-07-31T20:57:15.924Z,101541.81
2018-07-31T20:59:44.819Z,101547.53
2018-07-31T21:02:13.931Z,101549.04
2018-07-31T21:04:42.831Z,101553.28
2018-07-31T21:07:11.687Z,101556.53
2018-07-31T21:09:40.598Z,101554.50
2018-07-31T21:12:09.424Z,101553.34
2018-07-31T21:14:41.376Z,101558.06
2018-07-31T21:17:10.246Z,101564.91
2018-07-31T21:19:39.083Z,101568.19
2018-07-31T21:22:07.979Z,101571.88
2018-07-31T21:24:36.871Z,101572.09
2018-07-31T21:27:05.711Z,101572.75
2018-07-31T21:29:34.899Z,101581.02
2018-07-31T21:32:03.740Z,101582.50
2018-07-31T21:34:32.667Z,101583.80
2018-07-31T21:37:05.273Z,101589.41
2018-07-31T21:39:34.087Z,101595.18
2018-07-31T21:42:02.919Z,101595.30
2018-07-31T21:44:31.741Z,101595.93
2018-07-31T21:47:00.585Z,101602.46
2018-07-31T21:49:29.452Z,101605.22
2018-07-31T21:51:58.287Z,101604.22
2018-07-31T21:54:27.106Z,101609.92
2018-07-31T21:56:55.958Z,101604.55
2018-07-31T21:59:24.926Z,101600.94
2018-07-31T22:01:53.771Z,101600.22
2018-07-31T22:04:22.605Z,101607.45
2018-07-31T22:06:51.598Z,101603.09
2018-07-31T22:09:41.986Z,101601.78
2018-07-31T22:12:10.838Z,101605.66
2018-07-31T22:14:39.805Z,101614.34
2018-07-31T22:17:08.994Z,101621.38
2018-07-31T22:19:43.925Z,101617.34
2018-07-31T22:22:12.804Z,101620.33
2018-07-31T22:24:41.724Z,101621.80
2018-07-31T22:27:10.553Z,101622.42
2018-07-31T22:29:39.479Z,101619.76
2018-07-31T22:32:08.350Z,101625.17
2018-07-31T22:34:37.172Z,101614.45
2018-07-31T22:37:06.069Z,101619.66
2018-07-31T22:39:34.933Z,101612.70
2018-07-31T22:42:03.906Z,101609.64
2018-07-31T22:44:32.733Z,101610.25
2018-07-31T22:47:01.587Z,101614.97
2018-07-31T22:49:30.427Z,101612.73
2018-07-31T22:51:59.275Z,101618.77
2018-07-31T22:54:28.167Z,101625.36
2018-07-31T22:56:57.009Z,101618.32
2018-07-31T22:59:25.866Z,101621.59
2018-07-31T23:01:54.741Z,101619.20
2018-07-31T23:04:23.748Z,101618.73
2018-07-31T23:06:52.617Z,101614.95
2018-07-31T23:09:21.534Z,101626.49
2018-07-31T23:11:50.342Z,101624.02
2018-07-31T23:14:19.226Z,101623.02
2018-07-31T23:16:48.079Z,101616.16
2018-07-31T23:19:16.914Z,101624.08
2018-07-31T23:21:45.752Z,101625.16
2018-07-31T23:24:14.576Z,101611.42
2018-07-31T23:26:46.734Z,101617.46
2018-07-31T23:29:15.592Z,101625.22
2018-07-31T23:31:44.424Z,101626.43
2018-07-31T23:34:13.309Z,101625.41
2018-07-31T23:36:42.174Z,101626.14
2018-07-31T23:39:11.719Z,101629.05
2018-07-31T23:41:40.579Z,101632.61
2018-07-31T23:44:09.724Z,101636.42
2018-07-31T23:46:39.030Z,101626.61
2018-07-31T23:49:07.872Z,101624.77
2018-07-31T23:51:36.737Z,101629.48
2018-07-31T23:54:05.609Z,101620.37
2018-07-31T23:56:34.448Z,101625.17
2018-07-31T23:59:03.286Z,101619.34
